sensor_id;sensor_type;location;lat;lon;timestamp;P1;durP1;ratioP1;P2;durP2;ratioP2
2548;SDS011;1284;53.520;10.248;2023-04-24T00:01:17;0.77;;;0.77;;
2548;SDS011;1284;53.520;10.248;2023-04-24T00:03:42;0.63;;;0.35;;
2548;SDS011;1284;53.520;10.248;2023-04-24T00:06:08;0.95;;;0.70;;
2548;SDS011;1284;53.520;10.248;2023-04-24T00:08:34;0.80;;;0.50;;
2548;SDS011;1284;53.520;10.248;2023-04-24T00:11:00;1.55;;;0.80;;
2548;SDS011;1284;53.520;10.248;2023-04-24T00:13:25;1.15;;;0.80;;
2548;SDS011;1284;53.520;10.248;2023-04-24T00:15:53;0.38;;;0.38;;
2548;SDS011;1284;53.520;10.248;2023-04-24T00:18:19;0.60;;;0.60;;
2548;SDS011;1284;53.520;10.248;2023-04-24T00:20:44;0.95;;;0.65;;
2548;SDS011;1284;53.520;10.248;2023-04-24T00:23:10;0.95;;;0.70;;
2548;SDS011;1284;53.520;10.248;2023-04-24T00:25:35;0.70;;;0.50;;
2548;SDS011;1284;53.520;10.248;2023-04-24T00:28:01;1.33;;;0.70;;
2548;SDS011;1284;53.520;10.248;2023-04-24T00:30:27;1.00;;;0.70;;
2548;SDS011;1284;53.520;10.248;2023-04-24T00:32:52;1.08;;;0.70;;
2548;SDS011;1284;53.520;10.248;2023-04-24T00:35:18;0.57;;;0.57;;
2548;SDS011;1284;53.520;10.248;2023-04-24T00:37:45;0.88;;;0.57;;
2548;SDS011;1284;53.520;10.248;2023-04-24T00:40:10;1.25;;;0.60;;
2548;SDS011;1284;53.520;10.248;2023-04-24T00:42:36;1.85;;;1.08;;
2548;SDS011;1284;53.520;10.248;2023-04-24T00:45:03;1.85;;;0.93;;
2548;SDS011;1284;53.520;10.248;2023-04-24T00:47:30;1.45;;;0.90;;
2548;SDS011;1284;53.520;10.248;2023-04-24T00:49:56;1.08;;;0.70;;
2548;SDS011;1284;53.520;10.248;2023-04-24T00:52:21;0.88;;;0.70;;
2548;SDS011;1284;53.520;10.248;2023-04-24T00:54:49;2.17;;;0.70;;
2548;SDS011;1284;53.520;10.248;2023-04-24T00:57:15;1.00;;;0.65;;
2548;SDS011;1284;53.520;10.248;2023-04-24T00:59:41;1.23;;;0.43;;
2548;SDS011;1284;53.520;10.248;2023-04-24T01:02:08;0.65;;;0.60;;
2548;SDS011;1284;53.520;10.248;2023-04-24T01:04:36;0.63;;;0.50;;
2548;SDS011;1284;53.520;10.248;2023-04-24T01:07:03;0.55;;;0.47;;
2548;SDS011;1284;53.520;10.248;2023-04-24T01:12:00;0.70;;;0.60;;
2548;SDS011;1284;53.520;10.248;2023-04-24T01:14:26;1.45;;;0.68;;
2548;SDS011;1284;53.520;10.248;2023-04-24T01:16:52;1.55;;;1.00;;
2548;SDS011;1284;53.520;10.248;2023-04-24T01:19:17;1.30;;;0.70;;
2548;SDS011;1284;53.520;10.248;2023-04-24T01:21:44;0.75;;;0.60;;
2548;SDS011;1284;53.520;10.248;2023-04-24T01:24:12;1.65;;;0.88;;
2548;SDS011;1284;53.520;10.248;2023-04-24T01:26:38;0.90;;;0.65;;
2548;SDS011;1284;53.520;10.248;2023-04-24T01:29:03;0.95;;;0.60;;
2548;SDS011;1284;53.520;10.248;2023-04-24T01:31:29;1.08;;;0.45;;
2548;SDS011;1284;53.520;10.248;2023-04-24T01:33:55;1.02;;;0.70;;
2548;SDS011;1284;53.520;10.248;2023-04-24T01:36:21;0.90;;;0.63;;
2548;SDS011;1284;53.520;10.248;2023-04-24T01:38:47;0.63;;;0.60;;
2548;SDS011;1284;53.520;10.248;2023-04-24T01:41:13;0.95;;;0.70;;
2548;SDS011;1284;53.520;10.248;2023-04-24T01:43:38;0.80;;;0.57;;
2548;SDS011;1284;53.520;10.248;2023-04-24T01:46:04;1.23;;;0.68;;
2548;SDS011;1284;53.520;10.248;2023-04-24T01:48:30;0.60;;;0.50;;
2548;SDS011;1284;53.520;10.248;2023-04-24T01:50:56;0.68;;;0.38;;
2548;SDS011;1284;53.520;10.248;2023-04-24T01:53:22;0.70;;;0.70;;
2548;SDS011;1284;53.520;10.248;2023-04-24T01:55:47;1.70;;;0.70;;
2548;SDS011;1284;53.520;10.248;2023-04-24T01:58:13;1.95;;;0.40;;
2548;SDS011;1284;53.520;10.248;2023-04-24T02:00:39;0.50;;;0.50;;
2548;SDS011;1284;53.520;10.248;2023-04-24T02:03:05;0.50;;;0.30;;
2548;SDS011;1284;53.520;10.248;2023-04-24T02:05:31;0.32;;;0.32;;
2548;SDS011;1284;53.520;10.248;2023-04-24T02:07:56;0.40;;;0.32;;
2548;SDS011;1284;53.520;10.248;2023-04-24T02:10:22;1.20;;;0.52;;
2548;SDS011;1284;53.520;10.248;2023-04-24T02:12:47;0.75;;;0.70;;
2548;SDS011;1284;53.520;10.248;2023-04-24T02:15:14;0.88;;;0.55;;
2548;SDS011;1284;53.520;10.248;2023-04-24T02:17:40;0.30;;;0.30;;
2548;SDS011;1284;53.520;10.248;2023-04-24T02:20:06;0.30;;;0.30;;
2548;SDS011;1284;53.520;10.248;2023-04-24T02:22:35;0.73;;;0.40;;
2548;SDS011;1284;53.520;10.248;2023-04-24T02:25:01;0.43;;;0.40;;
2548;SDS011;1284;53.520;10.248;2023-04-24T02:27:29;0.60;;;0.40;;
2548;SDS011;1284;53.520;10.248;2023-04-24T02:29:55;0.70;;;0.43;;
2548;SDS011;1284;53.520;10.248;2023-04-24T02:32:21;0.15;;;0.10;;
2548;SDS011;1284;53.520;10.248;2023-04-24T02:34:46;0.68;;;0.47;;
2548;SDS011;1284;53.520;10.248;2023-04-24T02:37:12;0.30;;;0.30;;
2548;SDS011;1284;53.520;10.248;2023-04-24T02:39:38;0.35;;;0.32;;
2548;SDS011;1284;53.520;10.248;2023-04-24T02:42:03;0.32;;;0.32;;
2548;SDS011;1284;53.520;10.248;2023-04-24T02:44:29;0.80;;;0.68;;
2548;SDS011;1284;53.520;10.248;2023-04-24T02:46:57;0.50;;;0.45;;
2548;SDS011;1284;53.520;10.248;2023-04-24T02:49:23;0.35;;;0.35;;
2548;SDS011;1284;53.520;10.248;2023-04-24T02:51:48;0.20;;;0.20;;
2548;SDS011;1284;53.520;10.248;2023-04-24T02:54:14;0.40;;;0.40;;
2548;SDS011;1284;53.520;10.248;2023-04-24T02:56:39;0.25;;;0.25;;
2548;SDS011;1284;53.520;10.248;2023-04-24T02:59:07;0.35;;;0.35;;
2548;SDS011;1284;53.520;10.248;2023-04-24T03:01:33;0.82;;;0.50;;
2548;SDS011;1284;53.520;10.248;2023-04-24T03:03:59;0.85;;;0.40;;
2548;SDS011;1284;53.520;10.248;2023-04-24T03:06:25;0.47;;;0.30;;
2548;SDS011;1284;53.520;10.248;2023-04-24T03:08:52;0.35;;;0.25;;
2548;SDS011;1284;53.520;10.248;2023-04-24T03:11:20;0.20;;;0.20;;
2548;SDS011;1284;53.520;10.248;2023-04-24T03:13:45;0.40;;;0.20;;
2548;SDS011;1284;53.520;10.248;2023-04-24T03:16:11;2.08;;;0.57;;
2548;SDS011;1284;53.520;10.248;2023-04-24T03:18:36;0.95;;;0.50;;
2548;SDS011;1284;53.520;10.248;2023-04-24T03:21:04;0.43;;;0.38;;
2548;SDS011;1284;53.520;10.248;2023-04-24T03:23:30;0.10;;;0.10;;
2548;SDS011;1284;53.520;10.248;2023-04-24T03:25:56;0.20;;;0.20;;
2548;SDS011;1284;53.520;10.248;2023-04-24T03:28:21;0.17;;;0.17;;
2548;SDS011;1284;53.520;10.248;2023-04-24T03:30:53;0.38;;;0.38;;
2548;SDS011;1284;53.520;10.248;2023-04-24T03:33:20;0.20;;;0.20;;
2548;SDS011;1284;53.520;10.248;2023-04-24T03:35:55;0.40;;;0.40;;
2548;SDS011;1284;53.520;10.248;2023-04-24T03:38:21;0.10;;;0.10;;
2548;SDS011;1284;53.520;10.248;2023-04-24T03:40:46;1.15;;;0.32;;
2548;SDS011;1284;53.520;10.248;2023-04-24T03:43:34;0.50;;;0.30;;
2548;SDS011;1284;53.520;10.248;2023-04-24T03:46:05;0.40;;;0.40;;
2548;SDS011;1284;53.520;10.248;2023-04-24T03:48:34;1.13;;;0.28;;
2548;SDS011;1284;53.520;10.248;2023-04-24T03:51:00;1.27;;;0.30;;
2548;SDS011;1284;53.520;10.248;2023-04-24T03:53:27;0.28;;;0.28;;
2548;SDS011;1284;53.520;10.248;2023-04-24T03:55:57;0.30;;;0.20;;
2548;SDS011;1284;53.520;10.248;2023-04-24T03:58:24;0.40;;;0.40;;
2548;SDS011;1284;53.520;10.248;2023-04-24T04:00:50;0.28;;;0.25;;
2548;SDS011;1284;53.520;10.248;2023-04-24T04:03:38;1.98;;;0.63;;
2548;SDS011;1284;53.520;10.248;2023-04-24T04:06:04;2.83;;;0.50;;
2548;SDS011;1284;53.520;10.248;2023-04-24T04:08:33;0.20;;;0.20;;
2548;SDS011;1284;53.520;10.248;2023-04-24T04:10:58;1.17;;;0.57;;
2548;SDS011;1284;53.520;10.248;2023-04-24T04:13:24;0.28;;;0.28;;
2548;SDS011;1284;53.520;10.248;2023-04-24T04:15:49;0.30;;;0.30;;
2548;SDS011;1284;53.520;10.248;2023-04-24T04:18:15;0.30;;;0.30;;
2548;SDS011;1284;53.520;10.248;2023-04-24T04:20:41;0.32;;;0.10;;
2548;SDS011;1284;53.520;10.248;2023-04-24T04:23:08;1.10;;;0.32;;
2548;SDS011;1284;53.520;10.248;2023-04-24T04:25:53;0.25;;;0.25;;
2548;SDS011;1284;53.520;10.248;2023-04-24T04:28:23;0.40;;;0.30;;
2548;SDS011;1284;53.520;10.248;2023-04-24T04:30:53;0.10;;;0.10;;
2548;SDS011;1284;53.520;10.248;2023-04-24T04:33:23;0.65;;;0.50;;
2548;SDS011;1284;53.520;10.248;2023-04-24T04:35:49;0.28;;;0.28;;
2548;SDS011;1284;53.520;10.248;2023-04-24T04:38:18;0.17;;;0.17;;
2548;SDS011;1284;53.520;10.248;2023-04-24T04:41:06;0.70;;;0.25;;
2548;SDS011;1284;53.520;10.248;2023-04-24T04:43:33;0.17;;;0.17;;
2548;SDS011;1284;53.520;10.248;2023-04-24T04:45:59;0.25;;;0.25;;
2548;SDS011;1284;53.520;10.248;2023-04-24T04:48:48;0.55;;;0.40;;
2548;SDS011;1284;53.520;10.248;2023-04-24T04:51:13;0.50;;;0.28;;
2548;SDS011;1284;53.520;10.248;2023-04-24T04:53:39;0.20;;;0.20;;
2548;SDS011;1284;53.520;10.248;2023-04-24T04:56:05;0.40;;;0.40;;
2548;SDS011;1284;53.520;10.248;2023-04-24T04:58:44;0.20;;;0.20;;
2548;SDS011;1284;53.520;10.248;2023-04-24T05:01:12;0.10;;;0.10;;
2548;SDS011;1284;53.520;10.248;2023-04-24T05:03:41;0.20;;;0.20;;
2548;SDS011;1284;53.520;10.248;2023-04-24T05:06:09;0.40;;;0.38;;
2548;SDS011;1284;53.520;10.248;2023-04-24T05:08:37;0.30;;;0.30;;
2548;SDS011;1284;53.520;10.248;2023-04-24T05:11:05;0.52;;;0.40;;
2548;SDS011;1284;53.520;10.248;2023-04-24T05:13:32;0.22;;;0.20;;
2548;SDS011;1284;53.520;10.248;2023-04-24T05:15:58;0.93;;;0.60;;
2548;SDS011;1284;53.520;10.248;2023-04-24T05:18:25;0.20;;;0.20;;
2548;SDS011;1284;53.520;10.248;2023-04-24T05:20:53;0.10;;;0.10;;
2548;SDS011;1284;53.520;10.248;2023-04-24T05:23:18;0.00;;;0.00;;
2548;SDS011;1284;53.520;10.248;2023-04-24T05:25:48;0.63;;;0.45;;
2548;SDS011;1284;53.520;10.248;2023-04-24T05:28:13;0.30;;;0.28;;
2548;SDS011;1284;53.520;10.248;2023-04-24T05:30:40;0.35;;;0.35;;
2548;SDS011;1284;53.520;10.248;2023-04-24T05:33:06;0.40;;;0.35;;
2548;SDS011;1284;53.520;10.248;2023-04-24T05:35:33;0.10;;;0.10;;
2548;SDS011;1284;53.520;10.248;2023-04-24T05:37:59;0.45;;;0.28;;
2548;SDS011;1284;53.520;10.248;2023-04-24T05:40:25;0.20;;;0.20;;
2548;SDS011;1284;53.520;10.248;2023-04-24T05:42:51;0.10;;;0.10;;
2548;SDS011;1284;53.520;10.248;2023-04-24T05:45:16;0.30;;;0.30;;
2548;SDS011;1284;53.520;10.248;2023-04-24T05:47:42;0.52;;;0.30;;
2548;SDS011;1284;53.520;10.248;2023-04-24T05:50:11;0.20;;;0.20;;
2548;SDS011;1284;53.520;10.248;2023-04-24T05:52:37;0.57;;;0.40;;
2548;SDS011;1284;53.520;10.248;2023-04-24T05:55:09;0.10;;;0.10;;
2548;SDS011;1284;53.520;10.248;2023-04-24T05:57:37;0.10;;;0.10;;
2548;SDS011;1284;53.520;10.248;2023-04-24T06:00:03;0.03;;;0.00;;
2548;SDS011;1284;53.520;10.248;2023-04-24T06:03:01;0.20;;;0.10;;
2548;SDS011;1284;53.520;10.248;2023-04-24T06:05:29;0.28;;;0.22;;
2548;SDS011;1284;53.520;10.248;2023-04-24T06:07:55;0.10;;;0.10;;
2548;SDS011;1284;53.520;10.248;2023-04-24T06:10:23;0.28;;;0.28;;
2548;SDS011;1284;53.520;10.248;2023-04-24T06:12:49;0.45;;;0.22;;
2548;SDS011;1284;53.520;10.248;2023-04-24T06:15:16;1.10;;;0.75;;
2548;SDS011;1284;53.520;10.248;2023-04-24T06:18:08;0.10;;;0.10;;
2548;SDS011;1284;53.520;10.248;2023-04-24T06:20:36;0.55;;;0.35;;
2548;SDS011;1284;53.520;10.248;2023-04-24T06:23:01;0.20;;;0.20;;
2548;SDS011;1284;53.520;10.248;2023-04-24T06:25:27;0.15;;;0.15;;
2548;SDS011;1284;53.520;10.248;2023-04-24T06:27:53;0.43;;;0.20;;
2548;SDS011;1284;53.520;10.248;2023-04-24T06:30:20;0.22;;;0.10;;
2548;SDS011;1284;53.520;10.248;2023-04-24T06:32:46;0.10;;;0.10;;
2548;SDS011;1284;53.520;10.248;2023-04-24T06:35:15;0.17;;;0.10;;
2548;SDS011;1284;53.520;10.248;2023-04-24T06:37:41;0.45;;;0.10;;
2548;SDS011;1284;53.520;10.248;2023-04-24T06:40:07;0.20;;;0.17;;
2548;SDS011;1284;53.520;10.248;2023-04-24T06:42:34;0.65;;;0.65;;
2548;SDS011;1284;53.520;10.248;2023-04-24T06:45:01;0.10;;;0.10;;
2548;SDS011;1284;53.520;10.248;2023-04-24T06:47:27;0.10;;;0.10;;
2548;SDS011;1284;53.520;10.248;2023-04-24T06:49:52;0.30;;;0.30;;
2548;SDS011;1284;53.520;10.248;2023-04-24T06:52:19;0.20;;;0.20;;
2548;SDS011;1284;53.520;10.248;2023-04-24T06:54:44;0.20;;;0.20;;
2548;SDS011;1284;53.520;10.248;2023-04-24T06:57:10;0.25;;;0.20;;
2548;SDS011;1284;53.520;10.248;2023-04-24T06:59:36;0.32;;;0.20;;
2548;SDS011;1284;53.520;10.248;2023-04-24T07:02:01;0.15;;;0.13;;
2548;SDS011;1284;53.520;10.248;2023-04-24T07:04:28;1.02;;;0.28;;
2548;SDS011;1284;53.520;10.248;2023-04-24T07:06:54;0.30;;;0.30;;
2548;SDS011;1284;53.520;10.248;2023-04-24T07:09:20;0.20;;;0.20;;
2548;SDS011;1284;53.520;10.248;2023-04-24T07:11:47;0.22;;;0.20;;
2548;SDS011;1284;53.520;10.248;2023-04-24T07:14:13;0.10;;;0.10;;
2548;SDS011;1284;53.520;10.248;2023-04-24T07:16:38;0.73;;;0.20;;
2548;SDS011;1284;53.520;10.248;2023-04-24T07:19:04;0.47;;;0.30;;
2548;SDS011;1284;53.520;10.248;2023-04-24T07:21:30;0.40;;;0.30;;
2548;SDS011;1284;53.520;10.248;2023-04-24T07:23:57;0.40;;;0.30;;
2548;SDS011;1284;53.520;10.248;2023-04-24T07:26:23;0.17;;;0.17;;
2548;SDS011;1284;53.520;10.248;2023-04-24T07:29:09;0.60;;;0.40;;
2548;SDS011;1284;53.520;10.248;2023-04-24T07:31:34;0.22;;;0.20;;
2548;SDS011;1284;53.520;10.248;2023-04-24T07:34:00;0.20;;;0.20;;
2548;SDS011;1284;53.520;10.248;2023-04-24T07:36:26;0.22;;;0.20;;
2548;SDS011;1284;53.520;10.248;2023-04-24T07:38:53;0.52;;;0.30;;
2548;SDS011;1284;53.520;10.248;2023-04-24T07:41:19;0.20;;;0.20;;
2548;SDS011;1284;53.520;10.248;2023-04-24T07:43:45;1.48;;;0.50;;
2548;SDS011;1284;53.520;10.248;2023-04-24T07:46:11;0.22;;;0.22;;
2548;SDS011;1284;53.520;10.248;2023-04-24T07:48:36;0.13;;;0.10;;
2548;SDS011;1284;53.520;10.248;2023-04-24T07:51:02;0.30;;;0.30;;
2548;SDS011;1284;53.520;10.248;2023-04-24T07:53:28;0.30;;;0.22;;
2548;SDS011;1284;53.520;10.248;2023-04-24T07:55:54;0.28;;;0.22;;
2548;SDS011;1284;53.520;10.248;2023-04-24T07:58:20;0.15;;;0.15;;
2548;SDS011;1284;53.520;10.248;2023-04-24T08:00:46;0.30;;;0.30;;
2548;SDS011;1284;53.520;10.248;2023-04-24T08:03:12;0.20;;;0.10;;
2548;SDS011;1284;53.520;10.248;2023-04-24T08:05:37;0.20;;;0.20;;
2548;SDS011;1284;53.520;10.248;2023-04-24T08:08:03;0.20;;;0.20;;
2548;SDS011;1284;53.520;10.248;2023-04-24T08:10:29;0.52;;;0.30;;
2548;SDS011;1284;53.520;10.248;2023-04-24T08:12:54;0.50;;;0.28;;
2548;SDS011;1284;53.520;10.248;2023-04-24T08:15:20;0.65;;;0.40;;
2548;SDS011;1284;53.520;10.248;2023-04-24T08:17:46;0.45;;;0.30;;
2548;SDS011;1284;53.520;10.248;2023-04-24T08:20:12;0.43;;;0.40;;
2548;SDS011;1284;53.520;10.248;2023-04-24T08:22:40;0.45;;;0.20;;
2548;SDS011;1284;53.520;10.248;2023-04-24T08:25:07;0.25;;;0.25;;
2548;SDS011;1284;53.520;10.248;2023-04-24T08:27:33;0.30;;;0.30;;
2548;SDS011;1284;53.520;10.248;2023-04-24T08:29:58;0.43;;;0.43;;
2548;SDS011;1284;53.520;10.248;2023-04-24T08:32:25;1.23;;;0.25;;
2548;SDS011;1284;53.520;10.248;2023-04-24T08:34:54;0.25;;;0.20;;
2548;SDS011;1284;53.520;10.248;2023-04-24T08:37:21;0.50;;;0.40;;
2548;SDS011;1284;53.520;10.248;2023-04-24T08:39:47;0.75;;;0.60;;
2548;SDS011;1284;53.520;10.248;2023-04-24T08:42:16;1.02;;;0.57;;
2548;SDS011;1284;53.520;10.248;2023-04-24T08:44:43;0.55;;;0.50;;
2548;SDS011;1284;53.520;10.248;2023-04-24T08:47:09;1.48;;;0.43;;
2548;SDS011;1284;53.520;10.248;2023-04-24T08:49:35;1.42;;;0.65;;
2548;SDS011;1284;53.520;10.248;2023-04-24T08:52:02;1.05;;;0.68;;
2548;SDS011;1284;53.520;10.248;2023-04-24T08:54:29;0.45;;;0.45;;
2548;SDS011;1284;53.520;10.248;2023-04-24T08:56:58;0.75;;;0.52;;
2548;SDS011;1284;53.520;10.248;2023-04-24T08:59:29;0.45;;;0.43;;
2548;SDS011;1284;53.520;10.248;2023-04-24T09:01:55;0.55;;;0.52;;
2548;SDS011;1284;53.520;10.248;2023-04-24T09:04:22;0.73;;;0.47;;
2548;SDS011;1284;53.520;10.248;2023-04-24T09:06:49;0.73;;;0.70;;
2548;SDS011;1284;53.520;10.248;2023-04-24T09:09:16;1.45;;;0.68;;
2548;SDS011;1284;53.520;10.248;2023-04-24T09:11:43;0.88;;;0.52;;
2548;SDS011;1284;53.520;10.248;2023-04-24T09:14:09;1.33;;;0.95;;
2548;SDS011;1284;53.520;10.248;2023-04-24T09:16:36;0.45;;;0.40;;
2548;SDS011;1284;53.520;10.248;2023-04-24T09:19:01;0.43;;;0.40;;
2548;SDS011;1284;53.520;10.248;2023-04-24T09:21:31;0.65;;;0.47;;
2548;SDS011;1284;53.520;10.248;2023-04-24T09:24:02;0.50;;;0.50;;
2548;SDS011;1284;53.520;10.248;2023-04-24T09:26:35;0.73;;;0.57;;
2548;SDS011;1284;53.520;10.248;2023-04-24T09:29:02;1.27;;;0.47;;
2548;SDS011;1284;53.520;10.248;2023-04-24T09:31:28;1.35;;;0.63;;
2548;SDS011;1284;53.520;10.248;2023-04-24T09:33:58;0.98;;;0.70;;
2548;SDS011;1284;53.520;10.248;2023-04-24T09:41:29;0.88;;;0.75;;
2548;SDS011;1284;53.520;10.248;2023-04-24T09:43:55;1.02;;;0.60;;
2548;SDS011;1284;53.520;10.248;2023-04-24T09:46:28;0.68;;;0.68;;
2548;SDS011;1284;53.520;10.248;2023-04-24T09:48:54;1.10;;;0.55;;
2548;SDS011;1284;53.520;10.248;2023-04-24T09:51:24;0.60;;;0.60;;
2548;SDS011;1284;53.520;10.248;2023-04-24T09:53:59;0.90;;;0.65;;
2548;SDS011;1284;53.520;10.248;2023-04-24T09:56:25;0.85;;;0.50;;
2548;SDS011;1284;53.520;10.248;2023-04-24T09:58:51;1.23;;;0.80;;
2548;SDS011;1284;53.520;10.248;2023-04-24T10:01:17;1.50;;;0.70;;
2548;SDS011;1284;53.520;10.248;2023-04-24T10:03:55;0.60;;;0.50;;
2548;SDS011;1284;53.520;10.248;2023-04-24T10:06:20;0.57;;;0.47;;
2548;SDS011;1284;53.520;10.248;2023-04-24T10:08:46;1.58;;;0.80;;
2548;SDS011;1284;53.520;10.248;2023-04-24T10:11:13;1.02;;;0.90;;
2548;SDS011;1284;53.520;10.248;2023-04-24T10:13:39;0.95;;;0.57;;
2548;SDS011;1284;53.520;10.248;2023-04-24T10:16:05;0.50;;;0.38;;
2548;SDS011;1284;53.520;10.248;2023-04-24T10:18:32;1.55;;;1.02;;
2548;SDS011;1284;53.520;10.248;2023-04-24T10:20:59;0.90;;;0.60;;
2548;SDS011;1284;53.520;10.248;2023-04-24T10:23:26;0.85;;;0.60;;
2548;SDS011;1284;53.520;10.248;2023-04-24T10:25:52;1.55;;;0.68;;
2548;SDS011;1284;53.520;10.248;2023-04-24T10:28:17;1.98;;;0.95;;
2548;SDS011;1284;53.520;10.248;2023-04-24T10:30:44;0.60;;;0.50;;
2548;SDS011;1284;53.520;10.248;2023-04-24T10:33:10;1.13;;;0.68;;
2548;SDS011;1284;53.520;10.248;2023-04-24T10:35:39;1.52;;;0.90;;
2548;SDS011;1284;53.520;10.248;2023-04-24T10:38:14;1.58;;;0.70;;
2548;SDS011;1284;53.520;10.248;2023-04-24T10:40:43;1.50;;;0.70;;
2548;SDS011;1284;53.520;10.248;2023-04-24T10:43:09;1.92;;;1.00;;
2548;SDS011;1284;53.520;10.248;2023-04-24T10:45:36;0.60;;;0.60;;
2548;SDS011;1284;53.520;10.248;2023-04-24T10:53:27;0.75;;;0.60;;
2548;SDS011;1284;53.520;10.248;2023-04-24T10:55:58;1.58;;;0.70;;
2548;SDS011;1284;53.520;10.248;2023-04-24T11:01:25;0.90;;;0.88;;
2548;SDS011;1284;53.520;10.248;2023-04-24T11:04:02;1.92;;;0.95;;
2548;SDS011;1284;53.520;10.248;2023-04-24T11:06:29;2.03;;;1.00;;
2548;SDS011;1284;53.520;10.248;2023-04-24T11:09:06;3.25;;;1.58;;
2548;SDS011;1284;53.520;10.248;2023-04-24T11:11:35;2.42;;;1.10;;
2548;SDS011;1284;53.520;10.248;2023-04-24T11:14:03;0.82;;;0.70;;
2548;SDS011;1284;53.520;10.248;2023-04-24T11:16:34;1.50;;;1.00;;
2548;SDS011;1284;53.520;10.248;2023-04-24T11:24:22;1.85;;;1.33;;
2548;SDS011;1284;53.520;10.248;2023-04-24T11:26:54;1.95;;;1.20;;
2548;SDS011;1284;53.520;10.248;2023-04-24T11:29:22;1.33;;;0.90;;
2548;SDS011;1284;53.520;10.248;2023-04-24T11:32:13;1.02;;;0.70;;
2548;SDS011;1284;53.520;10.248;2023-04-24T11:35:13;1.25;;;0.73;;
2548;SDS011;1284;53.520;10.248;2023-04-24T11:37:44;2.42;;;1.02;;
2548;SDS011;1284;53.520;10.248;2023-04-24T11:40:12;0.55;;;0.52;;
2548;SDS011;1284;53.520;10.248;2023-04-24T11:42:44;1.63;;;1.08;;
2548;SDS011;1284;53.520;10.248;2023-04-24T11:45:14;1.85;;;0.82;;
2548;SDS011;1284;53.520;10.248;2023-04-24T11:47:50;0.88;;;0.68;;
2548;SDS011;1284;53.520;10.248;2023-04-24T11:50:16;1.10;;;0.80;;
2548;SDS011;1284;53.520;10.248;2023-04-24T11:52:44;1.40;;;1.23;;
2548;SDS011;1284;53.520;10.248;2023-04-24T11:57:41;0.60;;;0.60;;
2548;SDS011;1284;53.520;10.248;2023-04-24T12:00:32;1.48;;;0.65;;
2548;SDS011;1284;53.520;10.248;2023-04-24T12:03:07;1.55;;;0.47;;
2548;SDS011;1284;53.520;10.248;2023-04-24T12:05:37;1.15;;;0.68;;
2548;SDS011;1284;53.520;10.248;2023-04-24T12:08:03;1.00;;;0.60;;
2548;SDS011;1284;53.520;10.248;2023-04-24T12:10:30;1.00;;;0.73;;
2548;SDS011;1284;53.520;10.248;2023-04-24T12:12:57;1.38;;;0.93;;
2548;SDS011;1284;53.520;10.248;2023-04-24T12:15:23;1.75;;;0.90;;
2548;SDS011;1284;53.520;10.248;2023-04-24T12:17:52;1.00;;;0.60;;
2548;SDS011;1284;53.520;10.248;2023-04-24T12:20:29;1.00;;;0.60;;
2548;SDS011;1284;53.520;10.248;2023-04-24T12:22:56;0.57;;;0.50;;
2548;SDS011;1284;53.520;10.248;2023-04-24T12:25:23;0.70;;;0.70;;
2548;SDS011;1284;53.520;10.248;2023-04-24T12:27:54;1.77;;;0.47;;
2548;SDS011;1284;53.520;10.248;2023-04-24T12:30:44;1.55;;;0.43;;
2548;SDS011;1284;53.520;10.248;2023-04-24T12:33:17;0.70;;;0.35;;
2548;SDS011;1284;53.520;10.248;2023-04-24T12:35:45;1.00;;;0.70;;
2548;SDS011;1284;53.520;10.248;2023-04-24T12:38:11;1.52;;;0.60;;
2548;SDS011;1284;53.520;10.248;2023-04-24T12:40:39;0.85;;;0.55;;
2548;SDS011;1284;53.520;10.248;2023-04-24T12:43:19;1.70;;;0.80;;
2548;SDS011;1284;53.520;10.248;2023-04-24T12:45:48;0.77;;;0.68;;
2548;SDS011;1284;53.520;10.248;2023-04-24T12:48:13;0.77;;;0.68;;
2548;SDS011;1284;53.520;10.248;2023-04-24T12:50:39;1.15;;;0.75;;
2548;SDS011;1284;53.520;10.248;2023-04-24T12:53:06;0.55;;;0.50;;
2548;SDS011;1284;53.520;10.248;2023-04-24T12:55:33;4.43;;;1.30;;
2548;SDS011;1284;53.520;10.248;2023-04-24T12:57:59;0.63;;;0.60;;
2548;SDS011;1284;53.520;10.248;2023-04-24T13:00:24;0.93;;;0.55;;
2548;SDS011;1284;53.520;10.248;2023-04-24T13:02:50;1.05;;;0.50;;
2548;SDS011;1284;53.520;10.248;2023-04-24T13:05:16;1.00;;;0.43;;
2548;SDS011;1284;53.520;10.248;2023-04-24T13:07:41;0.85;;;0.65;;
2548;SDS011;1284;53.520;10.248;2023-04-24T13:10:07;1.45;;;0.43;;
2548;SDS011;1284;53.520;10.248;2023-04-24T13:12:34;2.03;;;0.90;;
2548;SDS011;1284;53.520;10.248;2023-04-24T13:15:00;0.70;;;0.68;;
2548;SDS011;1284;53.520;10.248;2023-04-24T13:17:26;0.60;;;0.50;;
2548;SDS011;1284;53.520;10.248;2023-04-24T13:19:54;1.33;;;0.60;;
2548;SDS011;1284;53.520;10.248;2023-04-24T13:22:20;0.50;;;0.40;;
2548;SDS011;1284;53.520;10.248;2023-04-24T13:24:48;1.40;;;0.60;;
2548;SDS011;1284;53.520;10.248;2023-04-24T13:27:14;0.88;;;0.68;;
2548;SDS011;1284;53.520;10.248;2023-04-24T13:29:40;0.70;;;0.68;;
2548;SDS011;1284;53.520;10.248;2023-04-24T13:32:08;0.75;;;0.50;;
2548;SDS011;1284;53.520;10.248;2023-04-24T13:34:34;1.13;;;0.40;;
2548;SDS011;1284;53.520;10.248;2023-04-24T13:37:00;0.40;;;0.40;;
2548;SDS011;1284;53.520;10.248;2023-04-24T13:39:26;1.35;;;0.70;;
2548;SDS011;1284;53.520;10.248;2023-04-24T13:41:52;2.03;;;0.80;;
2548;SDS011;1284;53.520;10.248;2023-04-24T13:44:18;1.10;;;0.60;;
2548;SDS011;1284;53.520;10.248;2023-04-24T13:46:45;0.73;;;0.47;;
2548;SDS011;1284;53.520;10.248;2023-04-24T13:49:12;0.40;;;0.40;;
2548;SDS011;1284;53.520;10.248;2023-04-24T13:51:39;1.48;;;0.45;;
2548;SDS011;1284;53.520;10.248;2023-04-24T13:54:05;1.00;;;0.70;;
2548;SDS011;1284;53.520;10.248;2023-04-24T13:56:30;1.75;;;0.50;;
2548;SDS011;1284;53.520;10.248;2023-04-24T13:58:56;0.98;;;0.60;;
2548;SDS011;1284;53.520;10.248;2023-04-24T14:01:21;0.45;;;0.45;;
2548;SDS011;1284;53.520;10.248;2023-04-24T14:03:50;1.33;;;0.60;;
2548;SDS011;1284;53.520;10.248;2023-04-24T14:06:19;1.15;;;0.57;;
2548;SDS011;1284;53.520;10.248;2023-04-24T14:08:45;3.10;;;1.30;;
2548;SDS011;1284;53.520;10.248;2023-04-24T14:11:11;2.05;;;0.45;;
2548;SDS011;1284;53.520;10.248;2023-04-24T14:13:37;0.55;;;0.50;;
2548;SDS011;1284;53.520;10.248;2023-04-24T14:16:06;1.00;;;0.73;;
2548;SDS011;1284;53.520;10.248;2023-04-24T14:18:31;0.45;;;0.45;;
2548;SDS011;1284;53.520;10.248;2023-04-24T14:20:57;1.00;;;0.57;;
2548;SDS011;1284;53.520;10.248;2023-04-24T14:23:23;0.70;;;0.70;;
2548;SDS011;1284;53.520;10.248;2023-04-24T14:25:48;0.45;;;0.45;;
2548;SDS011;1284;53.520;10.248;2023-04-24T14:28:20;0.60;;;0.60;;
2548;SDS011;1284;53.520;10.248;2023-04-24T14:30:46;1.08;;;0.50;;
2548;SDS011;1284;53.520;10.248;2023-04-24T14:33:13;1.30;;;0.60;;
2548;SDS011;1284;53.520;10.248;2023-04-24T14:35:39;1.10;;;0.60;;
2548;SDS011;1284;53.520;10.248;2023-04-24T14:38:05;0.65;;;0.50;;
2548;SDS011;1284;53.520;10.248;2023-04-24T14:40:31;0.40;;;0.40;;
2548;SDS011;1284;53.520;10.248;2023-04-24T14:42:57;0.20;;;0.20;;
2548;SDS011;1284;53.520;10.248;2023-04-24T14:45:24;2.58;;;0.77;;
2548;SDS011;1284;53.520;10.248;2023-04-24T14:47:50;0.45;;;0.38;;
2548;SDS011;1284;53.520;10.248;2023-04-24T14:50:15;0.70;;;0.50;;
2548;SDS011;1284;53.520;10.248;2023-04-24T14:52:41;0.65;;;0.65;;
2548;SDS011;1284;53.520;10.248;2023-04-24T14:55:06;1.05;;;0.40;;
2548;SDS011;1284;53.520;10.248;2023-04-24T14:57:32;0.25;;;0.25;;
2548;SDS011;1284;53.520;10.248;2023-04-24T14:59:58;0.43;;;0.43;;
2548;SDS011;1284;53.520;10.248;2023-04-24T15:02:24;0.47;;;0.40;;
2548;SDS011;1284;53.520;10.248;2023-04-24T15:04:50;0.90;;;0.70;;
2548;SDS011;1284;53.520;10.248;2023-04-24T15:07:15;0.35;;;0.35;;
2548;SDS011;1284;53.520;10.248;2023-04-24T15:09:40;0.80;;;0.47;;
2548;SDS011;1284;53.520;10.248;2023-04-24T15:12:06;0.28;;;0.28;;
2548;SDS011;1284;53.520;10.248;2023-04-24T15:14:31;0.30;;;0.30;;
2548;SDS011;1284;53.520;10.248;2023-04-24T15:16:57;0.40;;;0.35;;
2548;SDS011;1284;53.520;10.248;2023-04-24T15:19:22;0.73;;;0.40;;
2548;SDS011;1284;53.520;10.248;2023-04-24T15:21:48;0.85;;;0.68;;
2548;SDS011;1284;53.520;10.248;2023-04-24T15:24:13;0.73;;;0.30;;
2548;SDS011;1284;53.520;10.248;2023-04-24T15:26:39;0.40;;;0.35;;